Time;durP1;ratioP1;P1;durP2;ratioP2;P2;SDS_P1;SDS_P2;PMS_P1;PMS_P2;Temp;Humidity;BMP_temperature;BMP_pressure;BME280_temperature;BME280_humidity;BME280_pressure;Samples;Min_cycle;Max_cycle;Signal;HPM_P1;HPM_P2
2020/12/15 00:01:21;;;;;;;43.77;16.93;;;3.40;99.90;;;;;;5067864;28;20467;-52
2020/12/15 00:03:48;;;;;;;47.93;18.67;;;3.50;99.90;;;;;;5071863;28;20533;-52
2020/12/15 00:06:15;;;;;;;42.37;16.57;;;3.50;99.90;;;;;;5071415;28;20459;-51
2020/12/15 00:08:42;;;;;;;41.70;17.03;;;3.60;99.90;;;;;;5072073;28;20547;-52
2020/12/15 00:11:09;;;;;;;41.37;16.87;;;3.60;99.90;;;;;;5071091;28;20462;-52
2020/12/15 00:13:35;;;;;;;41.30;16.00;;;3.60;99.90;;;;;;5071014;28;21008;-52
2020/12/15 00:16:02;;;;;;;43.57;17.10;;;3.80;99.90;;;;;;5069269;28;20463;-51
2020/12/15 00:18:28;;;;;;;40.43;16.87;;;3.90;99.90;;;;;;5071942;28;20821;-51
2020/12/15 00:20:55;;;;;;;47.37;18.20;;;4.00;99.90;;;;;;5070740;28;20467;-52
2020/12/15 00:23:21;;;;;;;45.50;18.57;;;4.00;99.90;;;;;;5076138;28;20467;-51
2020/12/15 00:25:49;;;;;;;44.50;18.63;;;4.00;99.90;;;;;;5075098;28;20458;-52
2020/12/15 00:28:15;;;;;;;40.60;17.80;;;3.90;99.90;;;;;;5075471;28;20540;-52
2020/12/15 00:30:42;;;;;;;38.63;16.93;;;3.90;99.90;;;;;;5074301;28;20458;-51
2020/12/15 00:33:08;;;;;;;43.33;18.53;;;3.90;99.90;;;;;;5076580;28;20470;-52
2020/12/15 00:35:35;;;;;;;40.97;17.83;;;3.90;99.90;;;;;;5076004;28;20467;-52
2020/12/15 00:38:01;;;;;;;41.30;17.30;;;3.90;99.90;;;;;;5076301;28;20450;-51
2020/12/15 00:40:28;;;;;;;43.00;18.40;;;3.90;99.90;;;;;;5076418;28;20441;-52
2020/12/15 00:42:55;;;;;;;39.70;18.90;;;3.80;99.90;;;;;;5073763;28;21019;-52
2020/12/15 00:45:21;;;;;;;42.40;18.57;;;3.90;99.90;;;;;;5076240;28;20455;-52
2020/12/15 00:47:48;;;;;;;54.50;19.40;;;3.90;99.90;;;;;;5075402;28;20461;-52
2020/12/15 00:50:14;;;;;;;46.20;17.93;;;3.90;99.90;;;;;;5076345;28;20455;-52
2020/12/15 00:52:41;;;;;;;39.40;17.20;;;3.80;99.90;;;;;;5074644;28;20497;-51
2020/12/15 00:55:07;;;;;;;47.17;19.50;;;3.70;99.90;;;;;;5075034;28;20858;-51
2020/12/15 00:57:34;;;;;;;43.53;19.67;;;3.80;99.90;;;;;;5075292;28;20474;-51
2020/12/15 01:00:01;;;;;;;51.93;19.20;;;3.80;99.90;;;;;;5074802;28;20826;-51
2020/12/15 01:02:28;;;;;;;38.13;17.20;;;3.70;99.90;;;;;;5092664;22;20562;-48
2020/12/15 01:04:55;;;;;;;44.83;18.23;;;3.80;99.90;;;;;;5058461;28;20458;-47
2020/12/15 01:07:22;;;;;;;45.70;18.00;;;3.70;99.90;;;;;;5069130;28;21031;-48
2020/12/15 01:09:48;;;;;;;42.30;17.80;;;3.70;99.90;;;;;;5068995;28;20490;-48
2020/12/15 01:12:15;;;;;;;45.83;18.50;;;3.70;99.90;;;;;;5070969;28;20469;-48
2020/12/15 01:14:41;;;;;;;38.27;16.73;;;3.60;99.90;;;;;;5055496;28;20493;-49
2020/12/15 01:17:09;;;;;;;53.37;17.70;;;3.70;99.90;;;;;;5050926;28;20447;-47
2020/12/15 01:19:35;;;;;;;39.37;18.20;;;3.60;99.90;;;;;;5050026;28;20448;-48
2020/12/15 01:22:02;;;;;;;40.40;16.47;;;3.60;99.90;;;;;;5070791;28;20447;-48
2020/12/15 01:24:29;;;;;;;40.77;17.80;;;3.50;99.90;;;;;;5069554;28;20485;-48
2020/12/15 01:26:55;;;;;;;44.23;17.43;;;3.40;99.90;;;;;;5050267;28;20956;-48
2020/12/15 01:29:22;;;;;;;48.57;18.63;;;3.40;99.90;;;;;;5049372;28;20491;-48
2020/12/15 01:31:48;;;;;;;49.87;17.30;;;3.40;99.90;;;;;;5063983;28;20513;-48
2020/12/15 01:34:16;;;;;;;43.40;16.10;;;3.50;99.90;;;;;;5047554;28;20503;-48
2020/12/15 01:36:42;;;;;;;43.13;17.60;;;3.60;99.90;;;;;;5030923;28;20474;-48
2020/12/15 01:39:09;;;;;;;48.40;16.43;;;3.70;99.90;;;;;;5033598;28;20501;-47
2020/12/15 01:41:35;;;;;;;55.10;17.20;;;3.80;99.90;;;;;;5066078;28;20473;-48
2020/12/15 01:44:05;;;;;;;47.57;18.80;;;3.50;99.90;;;;;;5070394;28;20478;-47
2020/12/15 01:46:32;;;;;;;44.10;16.40;;;3.30;99.90;;;;;;5046858;28;20472;-47
2020/12/15 01:48:59;;;;;;;45.93;17.60;;;3.40;99.90;;;;;;5050136;28;20888;-48
2020/12/15 01:51:28;;;;;;;44.53;15.80;;;3.50;99.90;;;;;;5047090;28;20467;-48
2020/12/15 01:53:58;;;;;;;50.97;16.53;;;3.40;99.90;;;;;;5048740;28;20475;-47
2020/12/15 01:56:26;;;;;;;46.23;17.77;;;3.40;99.90;;;;;;5043619;28;20983;-47
2020/12/15 01:58:55;;;;;;;58.23;19.80;;;3.50;99.90;;;;;;5050205;28;20447;-48
2020/12/15 02:01:21;;;;;;;55.93;18.30;;;3.40;99.90;;;;;;5044817;28;20512;-47
2020/12/15 02:03:48;;;;;;;47.80;18.83;;;3.30;99.90;;;;;;5048319;28;20497;-48
2020/12/15 02:06:15;;;;;;;48.03;18.83;;;3.20;99.90;;;;;;5051568;28;20514;-47
2020/12/15 02:08:43;;;;;;;47.40;18.43;;;3.30;99.90;;;;;;5048630;28;20485;-48
2020/12/15 02:11:10;;;;;;;48.80;17.73;;;3.30;99.90;;;;;;5068770;28;20465;-48
2020/12/15 02:13:37;;;;;;;46.20;17.67;;;3.20;99.90;;;;;;5070716;28;20450;-47
2020/12/15 02:16:04;;;;;;;48.40;18.00;;;3.60;99.90;;;;;;5065619;28;22048;-48
2020/12/15 02:18:31;;;;;;;43.60;18.17;;;3.70;99.90;;;;;;5051368;28;20443;-47
2020/12/15 02:20:57;;;;;;;51.37;19.20;;;3.40;99.90;;;;;;5053195;28;20439;-47
2020/12/15 02:23:25;;;;;;;44.27;18.97;;;3.30;99.90;;;;;;5054014;28;20486;-48
2020/12/15 02:25:51;;;;;;;49.97;18.90;;;3.40;99.90;;;;;;5053977;28;20504;-47
2020/12/15 02:28:18;;;;;;;44.67;17.57;;;3.50;99.90;;;;;;5070623;28;20466;-48
2020/12/15 02:30:44;;;;;;;43.43;18.13;;;3.50;99.90;;;;;;5067559;28;20875;-47
2020/12/15 02:33:10;;;;;;;45.50;18.77;;;3.40;99.90;;;;;;5069628;28;20532;-48
2020/12/15 02:35:37;;;;;;;46.97;19.20;;;3.50;99.90;;;;;;5072724;28;20519;-47
2020/12/15 02:38:03;;;;;;;42.50;19.30;;;3.40;99.90;;;;;;5073793;28;20450;-48
2020/12/15 02:40:31;;;;;;;47.50;18.07;;;3.30;99.90;;;;;;5060062;28;20460;-48
2020/12/15 02:42:57;;;;;;;45.20;18.50;;;3.40;99.90;;;;;;5071540;28;21027;-48
2020/12/15 02:45:24;;;;;;;47.27;18.27;;;3.30;99.90;;;;;;5063507;28;20459;-47
2020/12/15 02:47:50;;;;;;;46.20;18.40;;;3.30;99.90;;;;;;5053417;28;20447;-48
2020/12/15 02:50:22;;;;;;;45.30;19.10;;;3.60;99.90;;;;;;5060662;28;20560;-48
2020/12/15 02:52:49;;;;;;;38.73;16.87;;;3.70;99.90;;;;;;5073579;28;20877;-48
2020/12/15 02:55:15;;;;;;;39.80;16.13;;;3.70;99.90;;;;;;5069972;28;20994;-48
2020/12/15 02:57:43;;;;;;;33.73;15.00;;;3.60;99.90;;;;;;5073654;28;20480;-48
2020/12/15 03:00:10;;;;;;;38.53;17.40;;;3.50;99.90;;;;;;5069978;28;20516;-47
2020/12/15 03:02:37;;;;;;;40.87;17.13;;;3.70;99.90;;;;;;5052695;28;20549;-48
2020/12/15 03:05:04;;;;;;;37.67;15.90;;;3.50;99.90;;;;;;5059061;28;20531;-47
2020/12/15 03:07:31;;;;;;;40.60;16.07;;;3.40;99.90;;;;;;5063730;28;21005;-48
2020/12/15 03:09:57;;;;;;;42.33;18.27;;;3.40;99.90;;;;;;5052067;28;20488;-48
2020/12/15 03:12:24;;;;;;;37.97;16.33;;;3.30;99.90;;;;;;5052314;28;21038;-48
2020/12/15 03:14:51;;;;;;;39.20;16.23;;;3.20;99.90;;;;;;5052907;28;20448;-47
2020/12/15 03:17:17;;;;;;;37.97;16.43;;;3.30;99.90;;;;;;5058819;28;20485;-48
2020/12/15 03:19:44;;;;;;;41.73;17.97;;;3.20;99.90;;;;;;5072839;28;20447;-48
2020/12/15 03:22:11;;;;;;;37.87;17.53;;;3.20;99.90;;;;;;5071942;28;20467;-48
2020/12/15 03:24:37;;;;;;;42.83;16.97;;;3.00;99.90;;;;;;5063904;28;20470;-48
2020/12/15 03:27:04;;;;;;;35.60;15.90;;;3.10;99.90;;;;;;5067244;28;20533;-48
2020/12/15 03:29:31;;;;;;;36.40;15.97;;;2.90;99.90;;;;;;5052136;28;20504;-48
2020/12/15 03:31:58;;;;;;;40.27;17.27;;;2.80;99.90;;;;;;5051945;28;20471;-48
2020/12/15 03:34:25;;;;;;;36.83;17.40;;;2.90;99.90;;;;;;5055267;28;20991;-48
2020/12/15 03:36:51;;;;;;;39.30;17.07;;;2.90;99.90;;;;;;5068144;28;20467;-48
2020/12/15 03:39:18;;;;;;;39.40;17.37;;;2.80;99.90;;;;;;5072615;28;20508;-48
2020/12/15 03:41:44;;;;;;;39.50;16.03;;;2.90;99.90;;;;;;5062481;28;21185;-47
2020/12/15 03:44:11;;;;;;;38.07;16.90;;;2.90;99.90;;;;;;5065760;28;20517;-48
2020/12/15 03:46:37;;;;;;;41.83;17.20;;;3.00;99.90;;;;;;5054381;28;20467;-47
2020/12/15 03:49:05;;;;;;;38.40;16.60;;;2.90;99.90;;;;;;5056144;28;20549;-48
2020/12/15 03:51:31;;;;;;;36.87;16.07;;;2.90;99.90;;;;;;5051599;28;20468;-48
2020/12/15 03:54:01;;;;;;;37.30;17.87;;;2.90;99.90;;;;;;5070407;28;20479;-48
2020/12/15 03:56:27;;;;;;;35.37;16.67;;;2.90;99.90;;;;;;5070626;28;20466;-48
2020/12/15 03:58:54;;;;;;;35.33;16.20;;;3.00;99.90;;;;;;5066035;28;20517;-48
2020/12/15 04:01:20;;;;;;;34.63;16.43;;;2.80;99.90;;;;;;5053337;28;20463;-48
2020/12/15 04:03:47;;;;;;;39.50;17.10;;;2.90;99.90;;;;;;5058043;28;20498;-48
2020/12/15 04:06:14;;;;;;;48.37;17.93;;;3.10;99.90;;;;;;5059735;28;20455;-48
2020/12/15 04:08:41;;;;;;;36.17;16.97;;;3.30;99.90;;;;;;5050613;28;20487;-48
2020/12/15 04:11:08;;;;;;;34.97;16.20;;;3.20;99.90;;;;;;5052630;28;20956;-48
2020/12/15 04:13:34;;;;;;;39.67;16.40;;;3.10;99.90;;;;;;5051648;28;21041;-48
2020/12/15 04:16:01;;;;;;;34.00;16.33;;;3.10;99.90;;;;;;5051303;28;20520;-48
2020/12/15 04:18:27;;;;;;;37.13;15.57;;;2.90;99.90;;;;;;5060767;28;20471;-48
2020/12/15 04:20:54;;;;;;;35.40;15.90;;;3.00;99.90;;;;;;5071695;28;20446;-48
2020/12/15 04:23:21;;;;;;;37.57;16.87;;;3.10;99.90;;;;;;5059745;28;22563;-48
2020/12/15 04:25:53;;;;;;;34.20;15.97;;;3.10;99.90;;;;;;5070207;28;20512;-47
2020/12/15 04:28:19;;;;;;;31.10;14.63;;;3.10;99.90;;;;;;5058548;28;20535;-47
2020/12/15 04:30:46;;;;;;;30.70;14.47;;;3.20;99.90;;;;;;5042828;28;20504;-48
2020/12/15 04:33:12;;;;;;;32.23;15.63;;;3.20;99.90;;;;;;5070823;28;20478;-48
2020/12/15 04:35:39;;;;;;;28.00;13.20;;;3.10;99.90;;;;;;5064542;28;20463;-48
2020/12/15 04:38:05;;;;;;;33.53;15.30;;;3.20;99.90;;;;;;5051280;28;20994;-48
2020/12/15 04:40:33;;;;;;;27.77;14.83;;;3.20;99.90;;;;;;5050009;28;20466;-48
2020/12/15 04:43:02;;;;;;;30.83;14.43;;;3.10;99.90;;;;;;5053089;28;20884;-47
2020/12/15 04:45:28;;;;;;;33.70;14.93;;;3.10;99.90;;;;;;5062086;28;20464;-48
2020/12/15 04:48:03;;;;;;;31.53;15.50;;;3.20;99.90;;;;;;5051192;28;20454;-48
2020/12/15 04:50:33;;;;;;;33.13;15.90;;;3.00;99.90;;;;;;5049410;28;20495;-48
2020/12/15 04:53:07;;;;;;;28.50;14.27;;;3.10;99.90;;;;;;5053893;28;20570;-48
2020/12/15 04:55:35;;;;;;;28.27;14.97;;;3.00;99.90;;;;;;5071264;28;20512;-48
2020/12/15 04:58:03;;;;;;;29.40;15.17;;;3.10;99.90;;;;;;5051377;28;20467;-48
2020/12/15 05:00:32;;;;;;;33.73;16.57;;;3.10;99.90;;;;;;5052920;28;20459;-47
2020/12/15 05:03:00;;;;;;;30.23;15.80;;;3.20;99.90;;;;;;5050204;28;20491;-47
2020/12/15 05:05:27;;;;;;;32.40;16.50;;;3.20;99.90;;;;;;5052623;28;20876;-47
2020/12/15 05:07:56;;;;;;;39.33;16.37;;;3.20;99.90;;;;;;5056002;28;20455;-47
2020/12/15 05:10:23;;;;;;;31.43;15.30;;;3.20;99.90;;;;;;5046367;28;20487;-48
2020/12/15 05:12:50;;;;;;;30.23;14.87;;;3.30;99.90;;;;;;5048787;28;20535;-47
2020/12/15 05:15:18;;;;;;;34.10;16.30;;;3.40;99.90;;;;;;5050106;28;20481;-48
2020/12/15 05:17:46;;;;;;;30.37;16.00;;;3.40;99.90;;;;;;5051678;28;20879;-48
2020/12/15 05:20:18;;;;;;;30.70;14.67;;;3.50;99.90;;;;;;5048775;28;20450;-47
2020/12/15 05:22:46;;;;;;;30.83;15.03;;;3.60;99.90;;;;;;5050025;28;21017;-48
2020/12/15 05:25:24;;;;;;;29.77;14.53;;;3.70;99.90;;;;;;5053493;28;20459;-48
2020/12/15 05:27:51;;;;;;;30.67;14.97;;;3.70;99.90;;;;;;5051220;28;20541;-48
2020/12/15 05:30:18;;;;;;;27.70;14.10;;;3.70;99.90;;;;;;5050171;28;20478;-48
2020/12/15 05:32:50;;;;;;;33.63;15.43;;;3.70;99.90;;;;;;5052594;28;20530;-48
2020/12/15 05:35:23;;;;;;;26.93;14.37;;;3.90;99.90;;;;;;5052453;28;20510;-48
2020/12/15 05:37:50;;;;;;;24.73;13.67;;;3.80;99.90;;;;;;5051716;28;20466;-48
2020/12/15 05:40:17;;;;;;;24.80;13.20;;;3.80;99.90;;;;;;5048693;28;20509;-47
2020/12/15 05:42:51;;;;;;;26.03;12.60;;;3.80;99.90;;;;;;5052708;28;20492;-47
2020/12/15 05:45:20;;;;;;;31.27;16.77;;;3.80;99.90;;;;;;5051779;28;21124;-48
2020/12/15 05:47:48;;;;;;;33.43;16.43;;;3.80;99.90;;;;;;5051888;28;20516;-47
2020/12/15 05:50:20;;;;;;;34.17;16.57;;;3.80;99.90;;;;;;5052064;28;20483;-48
2020/12/15 05:52:55;;;;;;;35.57;16.47;;;3.70;99.90;;;;;;5051551;28;20479;-47
2020/12/15 05:55:21;;;;;;;33.40;14.73;;;3.60;99.90;;;;;;5052601;28;20481;-48
2020/12/15 05:57:48;;;;;;;31.77;16.10;;;3.70;99.90;;;;;;5050302;28;21113;-48
2020/12/15 06:00:15;;;;;;;31.90;15.60;;;3.80;99.90;;;;;;5046282;28;20459;-47
2020/12/15 06:02:42;;;;;;;31.77;16.33;;;3.80;99.90;;;;;;5053905;28;20536;-47
2020/12/15 06:05:09;;;;;;;33.77;15.73;;;3.80;99.90;;;;;;5056973;28;20463;-48
2020/12/15 06:07:36;;;;;;;36.50;15.70;;;3.80;99.90;;;;;;5058571;28;20818;-47
2020/12/15 06:10:05;;;;;;;29.40;14.83;;;3.80;99.90;;;;;;5051112;28;20489;-48
2020/12/15 06:12:32;;;;;;;27.53;14.40;;;3.70;99.90;;;;;;5054718;28;20489;-48
2020/12/15 06:14:59;;;;;;;27.93;14.07;;;3.80;99.90;;;;;;5051845;28;20463;-48
2020/12/15 06:17:27;;;;;;;29.07;15.20;;;3.80;99.90;;;;;;5054286;28;20455;-47
2020/12/15 06:19:57;;;;;;;32.67;16.37;;;3.80;99.90;;;;;;5057617;28;20515;-47
2020/12/15 06:22:25;;;;;;;29.67;14.67;;;3.80;99.90;;;;;;5049442;28;20471;-47
2020/12/15 06:24:56;;;;;;;29.50;14.70;;;3.80;99.90;;;;;;5052916;28;20467;-47
2020/12/15 06:27:30;;;;;;;28.13;14.37;;;3.70;99.90;;;;;;5049999;28;20486;-48
2020/12/15 06:29:57;;;;;;;30.23;15.07;;;3.70;99.90;;;;;;5064496;28;20482;-47
2020/12/15 06:32:24;;;;;;;34.53;16.70;;;3.70;99.90;;;;;;5049170;28;20944;-48
2020/12/15 06:34:52;;;;;;;36.20;16.50;;;3.70;99.90;;;;;;5046503;28;20460;-47
2020/12/15 06:37:21;;;;;;;32.80;15.37;;;3.80;99.90;;;;;;5031199;28;20854;-48
2020/12/15 06:39:57;;;;;;;33.70;16.50;;;3.90;99.90;;;;;;5048415;28;20513;-48
2020/12/15 06:42:24;;;;;;;32.97;16.07;;;3.70;99.90;;;;;;5048952;28;20451;-47
2020/12/15 06:45:06;;;;;;;33.30;16.30;;;3.70;99.90;;;;;;5031106;28;20461;-47
2020/12/15 06:47:33;;;;;;;34.67;16.10;;;3.50;99.90;;;;;;5048955;28;20466;-47
2020/12/15 06:50:11;;;;;;;33.50;16.10;;;3.60;99.90;;;;;;5049636;28;20483;-48
2020/12/15 06:52:38;;;;;;;39.03;16.80;;;3.70;99.90;;;;;;5049792;28;20475;-47
2020/12/15 06:55:05;;;;;;;36.80;15.97;;;3.50;99.90;;;;;;5061139;28;20447;-47
2020/12/15 06:57:33;;;;;;;42.80;17.03;;;3.50;99.90;;;;;;5049628;28;20463;-47
2020/12/15 07:00:04;;;;;;;39.10;16.67;;;3.60;99.90;;;;;;5043872;28;20885;-47
2020/12/15 07:02:32;;;;;;;44.57;17.70;;;3.70;99.90;;;;;;5046072;28;21180;-46
2020/12/15 07:05:24;;;;;;;40.20;17.30;;;3.50;99.90;;;;;;5051677;28;20633;-48
2020/12/15 07:07:53;;;;;;;39.03;18.07;;;3.70;99.90;;;;;;5053367;28;20454;-47
2020/12/15 07:10:20;;;;;;;43.20;19.17;;;3.60;99.90;;;;;;5052977;28;20475;-47
2020/12/15 07:12:48;;;;;;;41.50;18.83;;;3.50;99.90;;;;;;5053259;28;21000;-47
2020/12/15 07:15:15;;;;;;;54.33;19.27;;;3.40;99.90;;;;;;5053167;28;20972;-47
2020/12/15 07:17:46;;;;;;;45.20;19.23;;;3.30;99.90;;;;;;5050509;28;20963;-47
2020/12/15 07:20:13;;;;;;;41.60;19.07;;;3.40;99.90;;;;;;5052937;28;20446;-47
2020/12/15 07:22:40;;;;;;;44.73;19.10;;;3.40;99.90;;;;;;5052914;28;20972;-47
2020/12/15 07:25:08;;;;;;;45.37;18.60;;;3.40;99.90;;;;;;5053167;28;20452;-48
2020/12/15 07:27:37;;;;;;;48.47;20.77;;;3.40;99.90;;;;;;5052922;28;20456;-47
2020/12/15 07:30:07;;;;;;;47.60;20.43;;;3.40;99.90;;;;;;5052632;28;20484;-47
2020/12/15 07:32:36;;;;;;;47.23;19.40;;;3.30;99.90;;;;;;5052121;28;20547;-48
2020/12/15 07:35:05;;;;;;;55.03;21.37;;;3.50;99.90;;;;;;5038497;28;20479;-47
2020/12/15 07:37:34;;;;;;;53.00;19.77;;;3.60;99.90;;;;;;5046962;28;20872;-48
2020/12/15 07:40:04;;;;;;;49.50;20.70;;;3.80;99.90;;;;;;5051230;28;20444;-47
2020/12/15 07:42:33;;;;;;;48.10;18.83;;;3.80;99.90;;;;;;5051263;28;20962;-47
2020/12/15 07:45:01;;;;;;;39.37;18.20;;;3.80;99.90;;;;;;5051523;28;20489;-47
2020/12/15 07:47:28;;;;;;;43.87;18.43;;;3.90;99.90;;;;;;5051150;28;20527;-47
2020/12/15 07:49:56;;;;;;;43.73;17.53;;;3.80;99.90;;;;;;5051007;28;20479;-48
2020/12/15 07:52:30;;;;;;;41.77;20.13;;;3.60;99.90;;;;;;5048236;28;20451;-47
2020/12/15 07:55:01;;;;;;;50.23;19.07;;;3.50;99.90;;;;;;5051096;28;20999;-47
2020/12/15 07:57:32;;;;;;;51.07;19.53;;;3.50;99.90;;;;;;5078441;22;20882;-52
2020/12/15 08:00:17;;;;;;;39.07;17.73;;;3.60;99.90;;;;;;5061970;28;20566;-52
2020/12/15 08:02:45;;;;;;;33.10;16.63;;;3.80;99.90;;;;;;5071103;28;20443;-52
2020/12/15 08:05:14;;;;;;;46.03;19.07;;;3.90;99.90;;;;;;5070285;28;20478;-52
2020/12/15 08:07:49;;;;;;;41.83;18.57;;;4.00;99.90;;;;;;5066684;28;20479;-52
2020/12/15 08:10:23;;;;;;;41.67;18.20;;;3.90;99.90;;;;;;5052145;28;20483;-52
2020/12/15 08:12:50;;;;;;;39.57;17.90;;;4.00;99.90;;;;;;5052083;28;20447;-52
2020/12/15 08:15:18;;;;;;;38.20;18.03;;;4.10;99.90;;;;;;5068803;28;21009;-53
2020/12/15 08:17:46;;;;;;;38.83;17.77;;;4.00;99.90;;;;;;5070331;28;20466;-52
2020/12/15 08:20:15;;;;;;;41.37;19.10;;;4.10;99.90;;;;;;5048279;28;20820;-52
2020/12/15 08:22:45;;;;;;;42.43;19.10;;;4.10;99.90;;;;;;5068348;28;20451;-52
2020/12/15 08:25:13;;;;;;;36.03;18.00;;;4.20;99.90;;;;;;5064094;28;20487;-52
2020/12/15 08:27:39;;;;;;;41.97;18.83;;;4.30;99.90;;;;;;5068179;28;20478;-52
2020/12/15 08:30:17;;;;;;;43.67;18.77;;;4.30;99.90;;;;;;5069445;28;20482;-52
2020/12/15 08:32:48;;;;;;;38.13;18.87;;;4.20;99.90;;;;;;5064829;28;20466;-51
2020/12/15 08:35:22;;;;;;;42.67;19.37;;;4.40;99.90;;;;;;5060553;28;20505;-52
2020/12/15 08:37:55;;;;;;;37.60;18.90;;;4.40;99.90;;;;;;5068352;28;20474;-52
2020/12/15 08:40:22;;;;;;;36.67;18.70;;;4.30;99.90;;;;;;5071234;28;20466;-52
2020/12/15 08:42:48;;;;;;;38.73;16.83;;;4.20;99.90;;;;;;5052472;28;20501;-52
2020/12/15 08:45:17;;;;;;;38.53;17.90;;;4.10;99.90;;;;;;5058638;28;20957;-52
2020/12/15 08:47:45;;;;;;;35.33;18.20;;;4.30;99.90;;;;;;5032909;28;20473;-52
2020/12/15 08:50:13;;;;;;;44.53;19.30;;;4.30;99.90;;;;;;5034586;28;20476;-52
2020/12/15 08:52:40;;;;;;;39.97;21.03;;;4.50;99.90;;;;;;5050863;28;20967;-51
2020/12/15 08:55:07;;;;;;;44.87;21.13;;;4.50;99.90;;;;;;5050823;28;20459;-52
2020/12/15 08:57:33;;;;;;;43.90;21.10;;;4.40;99.90;;;;;;5050866;28;20483;-51
2020/12/15 09:00:14;;;;;;;45.33;23.83;;;4.50;99.90;;;;;;5050798;28;20452;-52
2020/12/15 09:02:42;;;;;;;46.63;23.47;;;4.40;99.90;;;;;;5037001;28;20463;-52
2020/12/15 09:05:09;;;;;;;44.33;22.10;;;4.40;99.90;;;;;;5030923;28;20482;-52
2020/12/15 09:07:36;;;;;;;43.93;20.50;;;4.50;99.90;;;;;;5031041;28;20473;-52
2020/12/15 09:10:14;;;;;;;42.27;20.00;;;4.60;99.90;;;;;;5030886;28;21010;-52
2020/12/15 09:12:45;;;;;;;41.70;20.83;;;4.60;99.90;;;;;;5031196;28;20452;-52
2020/12/15 09:15:11;;;;;;;44.60;22.60;;;4.60;99.90;;;;;;5031097;28;21000;-52
2020/12/15 09:17:39;;;;;;;50.40;20.67;;;4.80;99.90;;;;;;5031250;28;21179;-52
2020/12/15 09:20:08;;;;;;;39.00;19.13;;;4.80;99.90;;;;;;5030880;28;20449;-52
2020/12/15 09:22:37;;;;;;;44.90;20.40;;;4.80;99.90;;;;;;5031373;28;20484;-51
2020/12/15 09:25:12;;;;;;;45.50;21.37;;;4.60;99.90;;;;;;5031442;28;21017;-51
2020/12/15 09:27:38;;;;;;;45.80;22.60;;;4.50;99.90;;;;;;5036401;28;21190;-51
2020/12/15 09:30:05;;;;;;;47.77;22.40;;;4.70;99.90;;;;;;5050659;28;21019;-51
2020/12/15 09:32:32;;;;;;;45.63;22.03;;;4.90;99.90;;;;;;5050844;28;20531;-51
2020/12/15 09:34:59;;;;;;;42.37;19.90;;;5.10;99.90;;;;;;5051017;28;20837;-51
2020/12/15 09:37:26;;;;;;;37.43;19.13;;;5.10;99.90;;;;;;5050894;28;20476;-52
2020/12/15 09:39:52;;;;;;;41.50;20.03;;;5.10;99.90;;;;;;5050656;28;20451;-51
2020/12/15 09:42:20;;;;;;;43.93;20.60;;;5.20;99.90;;;;;;5050029;28;20505;-51
2020/12/15 09:44:47;;;;;;;43.90;18.80;;;4.90;99.90;;;;;;5050268;28;20509;-51
2020/12/15 09:47:13;;;;;;;42.90;20.97;;;5.00;99.90;;;;;;5050432;28;20472;-51
2020/12/15 09:49:39;;;;;;;43.63;19.73;;;5.20;99.90;;;;;;5050431;28;20487;-51
2020/12/15 09:52:06;;;;;;;36.87;19.80;;;5.50;99.90;;;;;;5050703;28;20447;-51
2020/12/15 09:54:33;;;;;;;37.60;19.30;;;5.70;99.90;;;;;;5042995;28;20461;-51
2020/12/15 09:57:00;;;;;;;42.43;19.80;;;5.70;99.90;;;;;;5045380;28;20476;-50
2020/12/15 09:59:26;;;;;;;34.97;17.80;;;5.60;99.90;;;;;;5044935;28;20454;-51
2020/12/15 10:01:53;;;;;;;39.80;20.57;;;5.80;99.90;;;;;;5029794;28;20447;-50
2020/12/15 10:04:20;;;;;;;42.60;20.33;;;5.70;99.90;;;;;;5030021;28;20452;-51
2020/12/15 10:06:48;;;;;;;41.07;20.97;;;5.60;99.90;;;;;;5030115;28;20853;-51
2020/12/15 10:09:15;;;;;;;44.77;21.30;;;5.70;99.90;;;;;;5031115;28;20476;-50
2020/12/15 10:11:43;;;;;;;41.27;20.13;;;5.90;99.90;;;;;;5033858;28;20884;-50
2020/12/15 10:14:10;;;;;;;41.80;19.53;;;5.90;99.90;;;;;;5029521;28;20527;-51
2020/12/15 10:16:37;;;;;;;44.60;20.00;;;6.00;99.90;;;;;;5030067;28;20437;-50
2020/12/15 10:19:03;;;;;;;44.77;22.00;;;5.80;99.90;;;;;;5029844;28;20450;-51
2020/12/15 10:21:30;;;;;;;35.80;19.00;;;5.90;99.90;;;;;;5033315;28;20864;-50
2020/12/15 10:23:56;;;;;;;42.20;20.70;;;6.00;99.90;;;;;;5029989;28;20487;-51
2020/12/15 10:26:25;;;;;;;42.43;19.80;;;6.10;99.90;;;;;;5029993;28;20804;-51
2020/12/15 10:28:53;;;;;;;45.73;20.57;;;6.20;99.90;;;;;;5029443;28;20464;-51
2020/12/15 10:31:20;;;;;;;39.83;20.17;;;6.10;99.90;;;;;;5029535;28;20570;-51
2020/12/15 10:33:46;;;;;;;37.33;18.33;;;6.00;99.90;;;;;;5029563;28;20457;-51
2020/12/15 10:36:14;;;;;;;36.20;17.93;;;5.80;99.90;;;;;;5031155;28;20461;-50
2020/12/15 10:38:41;;;;;;;38.10;19.20;;;5.60;99.90;;;;;;5029457;28;20471;-50
2020/12/15 10:41:07;;;;;;;39.77;19.20;;;5.60;99.90;;;;;;5033461;28;20978;-51
2020/12/15 10:43:34;;;;;;;42.53;20.40;;;5.60;99.90;;;;;;5033330;28;20446;-51
2020/12/15 10:46:02;;;;;;;35.10;18.60;;;5.70;99.90;;;;;;5033430;28;20446;-50
2020/12/15 10:48:29;;;;;;;35.70;19.23;;;5.60;99.90;;;;;;5038802;28;20464;-50
2020/12/15 10:50:55;;;;;;;36.20;19.43;;;5.80;99.90;;;;;;5051167;28;21028;-50
2020/12/15 10:53:22;;;;;;;34.97;17.83;;;6.00;99.90;;;;;;5051826;28;20441;-50
2020/12/15 10:55:49;;;;;;;35.77;17.83;;;6.00;99.90;;;;;;5051594;28;20440;-50
2020/12/15 10:58:16;;;;;;;38.37;18.77;;;6.10;99.90;;;;;;5051341;28;20471;-51
2020/12/15 11:00:42;;;;;;;36.97;19.40;;;6.10;99.90;;;;;;5051636;28;20441;-51
2020/12/15 11:03:10;;;;;;;31.40;18.10;;;6.20;99.90;;;;;;5045390;28;20506;-50
2020/12/15 11:05:37;;;;;;;36.90;19.10;;;6.30;99.90;;;;;;5032971;28;20444;-51
2020/12/15 11:08:03;;;;;;;35.70;18.80;;;6.40;99.90;;;;;;5032718;28;20528;-51
2020/12/15 11:10:30;;;;;;;36.60;18.90;;;6.50;99.90;;;;;;5036370;28;20510;-51
2020/12/15 11:13:00;;;;;;;34.10;18.87;;;6.50;99.90;;;;;;5032671;28;20441;-51
2020/12/15 11:15:27;;;;;;;36.33;18.97;;;6.70;99.90;;;;;;5032829;28;20441;-52
2020/12/15 11:17:53;;;;;;;36.20;19.63;;;6.80;99.90;;;;;;5032826;28;20529;-52
2020/12/15 11:20:21;;;;;;;38.80;18.03;;;6.90;99.90;;;;;;5051293;28;20451;-51
2020/12/15 11:22:48;;;;;;;36.27;19.60;;;6.90;99.90;;;;;;5051138;28;20446;-51
2020/12/15 11:25:17;;;;;;;36.60;19.80;;;6.80;99.90;;;;;;5051278;28;20455;-51
2020/12/15 11:27:44;;;;;;;39.53;20.40;;;6.70;99.90;;;;;;5050498;28;20471;-51
2020/12/15 11:30:11;;;;;;;35.93;18.50;;;6.70;99.90;;;;;;5040517;28;20484;-51
2020/12/15 11:32:38;;;;;;;37.23;18.97;;;6.70;99.90;;;;;;5032640;28;20934;-51
2020/12/15 11:35:04;;;;;;;37.83;20.80;;;6.60;99.90;;;;;;5036590;28;20452;-51
2020/12/15 11:37:32;;;;;;;41.10;20.20;;;6.60;99.90;;;;;;5032126;28;21004;-51
2020/12/15 11:39:58;;;;;;;39.43;19.97;;;6.80;99.90;;;;;;5031964;28;20857;-51
2020/12/15 11:42:25;;;;;;;36.83;20.30;;;6.90;99.90;;;;;;5032340;28;20836;-51
2020/12/15 11:44:51;;;;;;;39.87;20.17;;;6.80;99.90;;;;;;5035184;28;20499;-51
2020/12/15 11:47:19;;;;;;;43.00;21.60;;;6.70;99.90;;;;;;5032112;28;20461;-50
2020/12/15 11:49:46;;;;;;;37.87;20.13;;;6.40;99.90;;;;;;5031695;28;20478;-52
2020/12/15 11:52:12;;;;;;;38.77;20.70;;;6.50;99.90;;;;;;5046910;28;20826;-52
2020/12/15 11:54:41;;;;;;;40.77;20.17;;;6.70;99.90;;;;;;5050603;28;20533;-51
2020/12/15 11:57:08;;;;;;;41.23;20.43;;;6.90;99.90;;;;;;5050268;28;20479;-51
2020/12/15 11:59:37;;;;;;;44.10;22.30;;;7.10;99.90;;;;;;5050766;28;20444;-51
2020/12/15 12:02:03;;;;;;;38.90;21.73;;;7.10;99.90;;;;;;5051107;28;20451;-52
2020/12/15 12:04:30;;;;;;;42.30;21.83;;;7.30;99.90;;;;;;5052461;28;20456;-51
2020/12/15 12:06:56;;;;;;;41.37;20.73;;;7.40;99.90;;;;;;5052240;28;20531;-51
2020/12/15 12:09:23;;;;;;;36.47;19.47;;;7.60;99.90;;;;;;5051869;28;20486;-52
2020/12/15 12:11:50;;;;;;;36.97;19.87;;;7.70;99.90;;;;;;5050682;28;20826;-51
2020/12/15 12:14:17;;;;;;;40.90;20.73;;;7.70;99.90;;;;;;5052266;28;20474;-51
2020/12/15 12:16:43;;;;;;;36.23;18.83;;;7.60;99.90;;;;;;5051565;28;20452;-52
2020/12/15 12:19:09;;;;;;;40.97;21.70;;;7.30;99.90;;;;;;5051117;28;20885;-52
2020/12/15 12:21:37;;;;;;;37.67;20.37;;;7.00;99.90;;;;;;5051520;28;20980;-51
2020/12/15 12:24:04;;;;;;;35.70;20.33;;;7.20;99.90;;;;;;5052206;28;20534;-51
2020/12/15 12:26:30;;;;;;;37.20;20.23;;;7.30;99.90;;;;;;5051130;28;20462;-51
2020/12/15 12:28:59;;;;;;;36.57;19.30;;;7.30;99.90;;;;;;5051768;28;20494;-52
2020/12/15 12:31:25;;;;;;;36.13;20.10;;;7.30;99.90;;;;;;5050173;28;20511;-51
2020/12/15 12:33:52;;;;;;;35.23;20.13;;;7.30;99.90;;;;;;5051204;28;20899;-51
2020/12/15 12:36:18;;;;;;;35.90;20.23;;;7.20;99.90;;;;;;5051609;28;20452;-51
2020/12/15 12:38:45;;;;;;;36.93;20.63;;;7.10;99.90;;;;;;5051126;28;21008;-51